Time;durP1;ratioP1;P1;durP2;ratioP2;P2;SDS_P1;SDS_P2;PMS_P1;PMS_P2;Temp;Humidity;BMP_temperature;BMP_pressure;BME280_temperature;BME280_humidity;BME280_pressure;Samples;Min_cycle;Max_cycle;Signal;HPM_P1;HPM_P2
2022/06/20 00:00:44;;;;;;;;;;;14.60;99.90;;;;;;5048156;28;20007;-78
2022/06/20 00:03:15;;;;;;;;;;;14.60;99.90;;;;;;5054136;28;19955;-79
2022/06/20 00:05:42;;;;;;;;;;;14.60;99.90;;;;;;5061584;28;20002;-78
2022/06/20 00:08:10;;;;;;;;;;;14.50;99.90;;;;;;5049809;28;19940;-78
2022/06/20 00:10:37;;;;;;;;;;;14.50;99.90;;;;;;5047495;28;19929;-75
2022/06/20 00:13:04;;;;;;;;;;;14.50;99.90;;;;;;5047132;28;19925;-75
2022/06/20 00:15:31;;;;;;;;;;;14.50;99.90;;;;;;5047454;28;19933;-75
2022/06/20 00:18:00;;;;;;;;;;;14.60;99.90;;;;;;5047475;28;20529;-75
2022/06/20 00:20:27;;;;;;;;;;;14.60;99.90;;;;;;5028909;28;19928;-75
2022/06/20 00:22:54;;;;;;;;;;;14.70;99.90;;;;;;5043731;28;20859;-75
2022/06/20 00:25:21;;;;;;;;;;;14.70;99.90;;;;;;5047559;28;20434;-75
2022/06/20 00:27:48;;;;;;;;;;;14.70;99.90;;;;;;5047337;28;19929;-75
2022/06/20 00:30:16;;;;;;;;;;;14.70;99.90;;;;;;5026424;28;19928;-75
2022/06/20 00:32:43;;;;;;;;;;;14.70;99.90;;;;;;5044425;28;19928;-75
2022/06/20 00:35:11;;;;;;;;;;;14.70;99.90;;;;;;5047400;28;19932;-75
2022/06/20 00:37:38;;;;;;;;;;;14.80;99.90;;;;;;5046831;28;20412;-75
2022/06/20 00:40:14;;;;;;;;;;;14.80;99.90;;;;;;5047156;28;19936;-75
2022/06/20 00:42:41;;;;;;;;;;;14.80;99.90;;;;;;5040641;28;20021;-75
2022/06/20 00:45:08;;;;;;;;;;;14.80;99.90;;;;;;5046394;28;20023;-74
2022/06/20 00:47:36;;;;;;;;;;;14.80;99.90;;;;;;5047346;28;19996;-79
2022/06/20 00:50:04;;;;;;;;;;;14.80;99.90;;;;;;5047009;28;20386;-78
2022/06/20 00:52:34;;;;;;;;;;;14.80;99.90;;;;;;5045591;28;19958;-78
2022/06/20 00:55:02;;;;;;;;;;;14.90;99.90;;;;;;5044579;28;19956;-78
2022/06/20 00:57:31;;;;;;;;;;;15.60;99.90;;;;;;5061935;28;19925;-78
2022/06/20 01:00:00;;;;;;;;;;;14.80;99.90;;;;;;5059462;28;19929;-77
2022/06/20 01:02:30;;;;;;;;;;;15.00;99.90;;;;;;5047954;28;19929;-79
2022/06/20 01:05:00;;;;;;;;;;;15.00;99.90;;;;;;5048035;28;20425;-78
2022/06/20 01:07:29;;;;;;;;;;;15.00;99.90;;;;;;5047860;28;19929;-79
2022/06/20 01:09:58;;;;;;;;;;;15.00;99.90;;;;;;5047257;28;19928;-78
2022/06/20 01:12:26;;;;;;;;;;;15.00;99.90;;;;;;5046161;28;19935;-78
2022/06/20 01:14:53;;;;;;;;;;;15.00;99.90;;;;;;5042583;28;19925;-80
2022/06/20 01:17:23;;;;;;;;;;;15.00;99.90;;;;;;5039366;28;20027;-78
2022/06/20 01:19:53;;;;;;;;;;;15.10;99.90;;;;;;5043452;28;19928;-77
2022/06/20 01:22:36;;;;;;;;;;;15.10;99.90;;;;;;5033824;28;20452;-78
2022/06/20 01:25:09;;;;;;;;;;;15.20;99.90;;;;;;5047553;28;19928;-77
2022/06/20 01:27:39;;;;;;;;;;;15.20;99.90;;;;;;5043254;28;19929;-77
2022/06/20 01:30:06;;;;;;;;;;;15.20;99.90;;;;;;5046161;28;19935;-77
2022/06/20 01:32:33;;;;;;;;;;;15.20;99.90;;;;;;5046239;28;19968;-77
2022/06/20 01:35:02;;;;;;;;;;;15.30;99.90;;;;;;5046451;28;19925;-77
2022/06/20 01:37:29;;;;;;;;;;;15.30;99.90;;;;;;5043780;28;19959;-78
2022/06/20 01:39:57;;;;;;;;;;;15.30;99.90;;;;;;5044763;28;19977;-77
2022/06/20 01:42:23;;;;;;;;;;;15.20;99.90;;;;;;5043903;28;20663;-77
2022/06/20 01:44:53;;;;;;;;;;;15.20;99.90;;;;;;5028378;28;19933;-77
2022/06/20 01:47:20;;;;;;;;;;;15.20;99.90;;;;;;5045980;28;19933;-77
2022/06/20 01:49:49;;;;;;;;;;;15.20;99.90;;;;;;5046433;28;19928;-78
2022/06/20 01:52:18;;;;;;;;;;;15.20;99.90;;;;;;5045459;28;19936;-78
2022/06/20 01:54:46;;;;;;;;;;;15.20;99.90;;;;;;5046019;28;20316;-77
2022/06/20 01:57:14;;;;;;;;;;;15.10;99.90;;;;;;5041315;28;19936;-78
2022/06/20 01:59:43;;;;;;;;;;;14.90;99.90;;;;;;5041536;28;19940;-77
2022/06/20 02:02:11;;;;;;;;;;;14.50;99.90;;;;;;5045574;28;19933;-76
2022/06/20 02:04:38;;;;;;;;;;;14.40;99.90;;;;;;5045225;28;19957;-78
2022/06/20 02:07:07;;;;;;;;;;;14.20;99.90;;;;;;5046147;28;19925;-78
2022/06/20 02:09:33;;;;;;;;;;;14.10;99.90;;;;;;5045898;28;19940;-78
2022/06/20 02:12:01;;;;;;;;;;;13.80;99.90;;;;;;5045997;28;19984;-79
2022/06/20 02:14:30;;;;;;;;;;;13.80;99.90;;;;;;5045088;28;19990;-78
2022/06/20 02:16:59;;;;;;;;;;;13.60;99.90;;;;;;5045376;28;19935;-78
2022/06/20 02:19:29;;;;;;;;;;;13.50;99.90;;;;;;5045812;28;19979;-77
2022/06/20 02:21:57;;;;;;;;;;;13.30;99.90;;;;;;5027710;28;20011;-78
2022/06/20 02:24:25;;;;;;;;;;;13.30;99.90;;;;;;5044417;28;19964;-77
2022/06/20 02:26:55;;;;;;;;;;;13.20;99.90;;;;;;5045257;28;19971;-77
2022/06/20 02:29:22;;;;;;;;;;;13.10;99.90;;;;;;5044817;28;19933;-77
2022/06/20 02:31:51;;;;;;;;;;;13.10;99.90;;;;;;5044158;28;19928;-77
2022/06/20 02:34:18;;;;;;;;;;;13.10;99.90;;;;;;5044226;28;19928;-77
2022/06/20 02:36:46;;;;;;;;;;;13.00;99.90;;;;;;5042886;28;19928;-76
2022/06/20 02:39:13;;;;;;;;;;;13.00;99.90;;;;;;5046487;28;20000;-77
2022/06/20 02:41:41;;;;;;;;;;;12.90;99.90;;;;;;5045862;28;19931;-76
2022/06/20 02:44:10;;;;;;;;;;;12.90;99.90;;;;;;5043571;28;19939;-76
2022/06/20 02:46:37;;;;;;;;;;;12.80;99.90;;;;;;5043465;28;20377;-76
2022/06/20 02:49:09;;;;;;;;;;;12.80;99.90;;;;;;5044906;28;20420;-76
2022/06/20 02:51:37;;;;;;;;;;;12.70;99.90;;;;;;5046379;28;19971;-76
2022/06/20 02:54:06;;;;;;;;;;;12.70;99.90;;;;;;5042162;28;19998;-76
2022/06/20 02:56:35;;;;;;;;;;;12.70;99.90;;;;;;5044224;28;19925;-76
2022/06/20 02:59:05;;;;;;;;;;;12.60;99.90;;;;;;5040509;28;19957;-76
2022/06/20 03:01:35;;;;;;;;;;;12.60;99.90;;;;;;5046080;28;20000;-76
2022/06/20 03:04:02;;;;;;;;;;;12.60;99.90;;;;;;5044320;28;20006;-77
2022/06/20 03:06:32;;;;;;;;;;;12.60;99.90;;;;;;5045632;28;19973;-74
2022/06/20 03:08:59;;;;;;;;;;;12.60;99.90;;;;;;5044585;28;19955;-73
2022/06/20 03:11:29;;;;;;;;;;;12.60;99.90;;;;;;5049114;28;20412;-74
2022/06/20 03:13:57;;;;;;;;;;;12.60;99.90;;;;;;5047125;28;19983;-74
2022/06/20 03:16:24;;;;;;;;;;;12.60;99.90;;;;;;5042104;28;20430;-74
2022/06/20 03:18:51;;;;;;;;;;;12.60;99.90;;;;;;5049210;28;19925;-75
2022/06/20 03:21:18;;;;;;;;;;;12.70;99.90;;;;;;5047927;28;19929;-75
2022/06/20 03:23:45;;;;;;;;;;;12.60;99.90;;;;;;5047025;28;20345;-75
2022/06/20 03:26:14;;;;;;;;;;;12.60;99.90;;;;;;5048966;28;19936;-75
2022/06/20 03:28:42;;;;;;;;;;;12.50;99.90;;;;;;5048438;28;19975;-75
2022/06/20 03:31:10;;;;;;;;;;;12.50;99.90;;;;;;5026027;28;20006;-75
2022/06/20 03:33:37;;;;;;;;;;;12.50;99.90;;;;;;5047218;28;20002;-75
2022/06/20 03:36:05;;;;;;;;;;;12.50;99.90;;;;;;5048634;28;19940;-75
2022/06/20 03:38:33;;;;;;;;;;;12.50;99.90;;;;;;5048540;28;19986;-75
2022/06/20 03:41:00;;;;;;;;;;;12.50;99.90;;;;;;5047732;28;19929;-75
2022/06/20 03:43:28;;;;;;;;;;;12.50;99.90;;;;;;5044453;28;19924;-75
2022/06/20 03:45:58;;;;;;;;;;;12.50;99.90;;;;;;5040764;28;19933;-75
2022/06/20 03:48:33;;;;;;;;;;;12.50;99.90;;;;;;5042006;28;19929;-75
2022/06/20 03:51:03;;;;;;;;;;;12.60;99.90;;;;;;5046592;28;19925;-75
2022/06/20 03:53:32;;;;;;;;;;;12.60;99.90;;;;;;5046778;28;20390;-74
2022/06/20 03:56:03;;;;;;;;;;;12.60;99.90;;;;;;5048598;28;19929;-75
2022/06/20 03:58:33;;;;;;;;;;;12.60;99.90;;;;;;5048677;28;19980;-75
2022/06/20 04:01:03;;;;;;;;;;;12.60;99.90;;;;;;5044907;28;19925;-75
2022/06/20 04:03:32;;;;;;;;;;;12.60;99.90;;;;;;5028792;28;19986;-75
2022/06/20 04:06:01;;;;;;;;;;;12.70;99.90;;;;;;5048275;28;20401;-73
2022/06/20 04:10:57;;;;;;;;;;;12.70;99.90;;;;;;5048096;28;19956;-73
2022/06/20 04:11:18;;;;;;;;;;;12.80;99.90;;;;;;5045884;28;19955;-73
2022/06/20 04:13:51;;;;;;;;;;;12.90;99.90;;;;;;5039902;28;19924;-74
2022/06/20 04:16:21;;;;;;;;;;;12.90;99.90;;;;;;5047261;28;20381;-74
2022/06/20 04:18:50;;;;;;;;;;;12.90;99.90;;;;;;5037534;28;20436;-74
2022/06/20 04:21:20;;;;;;;;;;;13.00;99.90;;;;;;5046958;28;20007;-73
2022/06/20 04:23:51;;;;;;;;;;;13.00;99.90;;;;;;5046749;28;19929;-74
2022/06/20 04:26:21;;;;;;;;;;;13.00;99.90;;;;;;5030793;28;19929;-74
2022/06/20 04:28:50;;;;;;;;;;;13.10;99.90;;;;;;5048698;28;19925;-74
2022/06/20 04:31:19;;;;;;;;;;;13.20;99.90;;;;;;5047514;28;19932;-74
2022/06/20 04:33:50;;;;;;;;;;;13.30;99.90;;;;;;5047159;28;19925;-74
2022/06/20 04:36:20;;;;;;;;;;;13.30;99.90;;;;;;5042469;28;19987;-74
2022/06/20 04:38:51;;;;;;;;;;;13.40;99.90;;;;;;5047608;28;19975;-73
2022/06/20 04:41:19;;;;;;;;;;;13.50;99.90;;;;;;5053162;28;19975;-73
2022/06/20 04:43:49;;;;;;;;;;;13.50;99.90;;;;;;5060301;28;19929;-74
2022/06/20 04:46:20;;;;;;;;;;;13.50;99.90;;;;;;5055176;28;20046;-74
2022/06/20 04:48:50;;;;;;;;;;;13.50;99.90;;;;;;5054091;28;19929;-73
2022/06/20 04:51:18;;;;;;;;;;;13.60;99.90;;;;;;5053722;28;19954;-74
2022/06/20 04:53:46;;;;;;;;;;;13.60;99.90;;;;;;5056566;28;20010;-73
2022/06/20 04:56:14;;;;;;;;;;;13.60;99.90;;;;;;5049578;28;20006;-73
2022/06/20 04:58:44;;;;;;;;;;;13.60;99.90;;;;;;5029187;28;20299;-74
2022/06/20 05:01:11;;;;;;;;;;;13.60;99.90;;;;;;5046235;28;19924;-74
2022/06/20 05:03:40;;;;;;;;;;;13.50;99.90;;;;;;5046238;28;20011;-73
2022/06/20 05:06:11;;;;;;;;;;;13.40;99.90;;;;;;5047989;28;19931;-74
2022/06/20 05:08:39;;;;;;;;;;;13.30;99.90;;;;;;5047085;28;19940;-74
2022/06/20 05:11:07;;;;;;;;;;;13.20;99.90;;;;;;5047071;28;19928;-74
2022/06/20 05:13:37;;;;;;;;;;;13.10;99.90;;;;;;5045679;28;19936;-74
2022/06/20 05:16:04;;;;;;;;;;;13.10;99.90;;;;;;5022313;28;20702;-73
2022/06/20 05:18:32;;;;;;;;;;;13.10;99.90;;;;;;5047262;28;19929;-74
2022/06/20 05:21:02;;;;;;;;;;;13.20;99.90;;;;;;5046031;28;20004;-74
2022/06/20 05:23:34;;;;;;;;;;;13.30;99.90;;;;;;5045958;28;19928;-74
2022/06/20 05:26:01;;;;;;;;;;;13.30;99.90;;;;;;5046300;28;20317;-75
2022/06/20 05:28:29;;;;;;;;;;;13.40;99.90;;;;;;5047267;28;20035;-74
2022/06/20 05:30:56;;;;;;;;;;;13.30;99.90;;;;;;5042172;28;20302;-74
2022/06/20 05:33:26;;;;;;;;;;;13.30;99.90;;;;;;5045119;28;19928;-74
2022/06/20 05:35:53;;;;;;;;;;;13.30;99.90;;;;;;5027628;28;19939;-74
2022/06/20 05:38:23;;;;;;;;;;;13.30;99.90;;;;;;5045998;28;19939;-77
2022/06/20 05:40:53;;;;;;;;;;;13.30;99.90;;;;;;5045093;28;19983;-77
2022/06/20 05:43:20;;;;;;;;;;;13.30;99.90;;;;;;5047003;28;19925;-78
2022/06/20 05:45:49;;;;;;;;;;;13.20;99.90;;;;;;5054909;28;19925;-77
2022/06/20 05:48:15;;;;;;;;;;;13.10;99.90;;;;;;5049431;28;19984;-76
2022/06/20 05:50:46;;;;;;;;;;;13.10;99.90;;;;;;5046344;28;20585;-76
2022/06/20 05:53:15;;;;;;;;;;;13.10;99.90;;;;;;5039998;28;20355;-76
2022/06/20 05:55:43;;;;;;;;;;;13.20;99.90;;;;;;5041686;28;19936;-76
2022/06/20 05:58:15;;;;;;;;;;;13.30;99.90;;;;;;5044359;28;19932;-76
2022/06/20 06:00:42;;;;;;;;;;;13.40;99.90;;;;;;5047254;28;19935;-76
2022/06/20 06:03:12;;;;;;;;;;;13.50;99.90;;;;;;5044042;28;20019;-77
2022/06/20 06:05:40;;;;;;;;;;;13.40;99.90;;;;;;5045620;28;19939;-77
2022/06/20 06:08:14;;;;;;;;;;;13.50;99.90;;;;;;5048335;28;19941;-76
2022/06/20 06:10:43;;;;;;;;;;;13.50;99.90;;;;;;5047219;28;20344;-76
2022/06/20 06:13:14;;;;;;;;;;;13.60;99.90;;;;;;5045179;28;20421;-76
2022/06/20 06:16:46;;;;;;;;;;;13.70;99.90;;;;;;5047149;28;19936;-76
2022/06/20 06:18:32;;;;;;;;;;;13.80;99.90;;;;;;5047258;28;19925;-74
2022/06/20 06:20:58;;;;;;;;;;;14.00;99.90;;;;;;5045903;28;19925;-77
2022/06/20 06:23:25;;;;;;;;;;;14.10;99.90;;;;;;5043975;28;19948;-79
2022/06/20 06:25:52;;;;;;;;;;;14.20;99.90;;;;;;5050347;28;20015;-77
2022/06/20 06:28:22;;;;;;;;;;;14.30;99.90;;;;;;5043310;28;20398;-78
2022/06/20 06:30:50;;;;;;;;;;;14.30;99.90;;;;;;5050170;28;20039;-77
2022/06/20 06:33:20;;;;;;;;;;;14.40;99.90;;;;;;5048587;28;20343;-77
2022/06/20 06:35:50;;;;;;;;;;;14.60;99.90;;;;;;5048670;28;20417;-78
2022/06/20 06:38:18;;;;;;;;;;;14.90;99.90;;;;;;5050710;28;19924;-77
2022/06/20 06:40:47;;;;;;;;;;;15.20;99.90;;;;;;5044240;28;20381;-78
2022/06/20 06:43:19;;;;;;;;;;;15.40;99.90;;;;;;5043516;28;19979;-78
2022/06/20 06:45:49;;;;;;;;;;;15.60;99.90;;;;;;5029845;28;19947;-75
2022/06/20 06:48:17;;;;;;;;;;;15.70;99.90;;;;;;5046281;28;19947;-76
2022/06/20 06:50:46;;;;;;;;;;;15.80;99.90;;;;;;5050816;28;19925;-76
2022/06/20 06:53:17;;;;;;;;;;;15.90;99.90;;;;;;5027900;28;19931;-76
2022/06/20 06:55:46;;;;;;;;;;;16.10;99.90;;;;;;5030819;28;19929;-76
2022/06/20 06:58:16;;;;;;;;;;;16.40;99.90;;;;;;5049488;28;20364;-75
2022/06/20 07:00:46;;;;;;;;;;;16.50;99.90;;;;;;5030859;28;19925;-76
2022/06/20 07:03:17;;;;;;;;;;;16.40;99.90;;;;;;5047832;28;19932;-76
2022/06/20 07:05:46;;;;;;;;;;;16.50;99.90;;;;;;5051048;28;19959;-76
2022/06/20 07:08:14;;;;;;;;;;;16.50;99.90;;;;;;5051450;28;20432;-76
2022/06/20 07:10:48;;;;;;;;;;;16.60;99.90;;;;;;5050244;28;20503;-77
2022/06/20 07:13:19;;;;;;;;;;;16.70;99.90;;;;;;5050338;28;20545;-76
2022/06/20 07:15:46;;;;;;;;;;;16.80;99.90;;;;;;5052136;28;19974;-76
2022/06/20 07:18:18;;;;;;;;;;;16.90;99.90;;;;;;5033008;28;19962;-76
2022/06/20 07:20:46;;;;;;;;;;;17.00;99.90;;;;;;5045172;28;20024;-76
2022/06/20 07:23:14;;;;;;;;;;;17.20;99.90;;;;;;5045295;28;19939;-77
2022/06/20 07:25:43;;;;;;;;;;;17.40;99.90;;;;;;5047399;28;19936;-77
2022/06/20 07:28:13;;;;;;;;;;;18.20;99.90;;;;;;5047453;28;19929;-76
2022/06/20 07:30:41;;;;;;;;;;;18.90;99.90;;;;;;5047186;28;20341;-78
2022/06/20 07:33:10;;;;;;;;;;;19.60;99.90;;;;;;5056514;28;19929;-78
2022/06/20 07:35:41;;;;;;;;;;;19.80;99.90;;;;;;5051245;28;19928;-77
2022/06/20 07:38:11;;;;;;;;;;;20.20;99.90;;;;;;5051251;28;19931;-76
2022/06/20 07:40:42;;;;;;;;;;;21.10;99.90;;;;;;5050116;28;19929;-76
2022/06/20 07:43:11;;;;;;;;;;;22.20;99.90;;;;;;5049116;28;19929;-76
2022/06/20 07:45:38;;;;;;;;;;;23.40;99.90;;;;;;5050153;28;20420;-77
2022/06/20 07:48:07;;;;;;;;;;;24.40;99.90;;;;;;5047838;28;19929;-77
2022/06/20 07:50:35;;;;;;;;;;;25.50;99.90;;;;;;5052218;28;19935;-77
2022/06/20 07:53:07;;;;;;;;;;;27.20;99.90;;;;;;5049396;28;19925;-76
2022/06/20 07:55:35;;;;;;;;;;;27.90;99.90;;;;;;5044807;28;19925;-76
2022/06/20 07:58:04;;;;;;;;;;;28.70;99.90;;;;;;5047753;28;20558;-76
2022/06/20 08:00:35;;;;;;;;;;;29.20;99.90;;;;;;5044859;28;19935;-77
2022/06/20 08:03:04;;;;;;;;;;;29.80;99.90;;;;;;5043949;28;19935;-77
2022/06/20 08:05:37;;;;;;;;;;;29.70;99.90;;;;;;5050143;28;19928;-77
2022/06/20 08:08:10;;;;;;;;;;;29.90;99.90;;;;;;5047709;28;19929;-77
2022/06/20 08:10:39;;;;;;;;;;;30.20;99.90;;;;;;5050943;28;20412;-78
2022/06/20 08:13:10;;;;;;;;;;;30.00;99.90;;;;;;5054551;28;20020;-78
2022/06/20 08:15:40;;;;;;;;;;;30.20;99.90;;;;;;5057796;28;19929;-77
2022/06/20 08:18:06;;;;;;;;;;;30.80;99.90;;;;;;5050534;28;20078;-78
2022/06/20 08:20:38;;;;;;;;;;;31.50;99.90;;;;;;5040661;28;19966;-78
2022/06/20 08:23:10;;;;;;;;;;;31.90;99.90;;;;;;5052879;28;19944;-78
2022/06/20 08:25:40;;;;;;;;;;;31.60;99.90;;;;;;5034469;28;19941;-78
2022/06/20 08:28:10;;;;;;;;;;;31.00;99.90;;;;;;5052635;28;20018;-78
2022/06/20 08:30:40;;;;;;;;;;;30.00;99.90;;;;;;5047279;28;19933;-78
2022/06/20 08:33:10;;;;;;;;;;;29.00;99.90;;;;;;5047631;28;20646;-78
2022/06/20 08:35:40;;;;;;;;;;;28.10;99.90;;;;;;5050818;28;19932;-78
2022/06/20 08:38:10;;;;;;;;;;;27.30;99.90;;;;;;5048909;28;19933;-78
2022/06/20 08:40:50;;;;;;;;;;;26.60;99.90;;;;;;5028404;28;19940;-78
2022/06/20 08:43:47;;;;;;;;;;;26.00;99.90;;;;;;5044607;28;19933;-78
2022/06/20 08:46:36;;;;;;;;;;;25.50;99.90;;;;;;5046045;28;19929;-77
2022/06/20 08:49:17;;;;;;;;;;;24.90;99.90;;;;;;5051087;28;20023;-77
2022/06/20 08:52:08;;;;;;;;;;;24.40;99.90;;;;;;5050505;28;19929;-78
2022/06/20 08:54:52;;;;;;;;;;;24.60;99.90;;;;;;5046469;28;19924;-78
2022/06/20 08:57:26;;;;;;;;;;;25.40;99.90;;;;;;5018002;28;20472;-78
2022/06/20 08:59:57;;;;;;;;;;;26.30;99.90;;;;;;5049541;28;19928;-77
2022/06/20 09:02:37;;;;;;;;;;;26.30;99.90;;;;;;5043952;28;19929;-77
2022/06/20 09:05:22;;;;;;;;;;;26.20;99.90;;;;;;5049613;28;19933;-77
2022/06/20 09:08:15;;;;;;;;;;;25.50;99.90;;;;;;5059847;22;19929;-82
2022/06/20 09:10:48;;;;;;;;;;;25.50;99.90;;;;;;5019890;28;20016;-82
2022/06/20 09:13:35;;;;;;;;;;;25.20;99.90;;;;;;5030462;28;19929;-82
2022/06/20 09:16:07;;;;;;;;;;;24.90;99.90;;;;;;5012051;28;19925;-83
2022/06/20 09:18:41;;;;;;;;;;;24.60;99.90;;;;;;5033992;28;20007;-84
2022/06/20 09:21:14;;;;;;;;;;;24.50;99.90;;;;;;5018895;28;19932;-82
2022/06/20 09:23:48;;;;;;;;;;;24.40;99.90;;;;;;5020343;28;20430;-84
2022/06/20 09:26:24;;;;;;;;;;;25.10;99.90;;;;;;5033747;28;19968;-84
2022/06/20 09:32:20;;;;;;;;;;;27.20;99.90;;;;;;5017660;28;19929;-83
2022/06/20 09:35:05;;;;;;;;;;;27.90;99.90;;;;;;5013879;28;20048;-81
2022/06/20 09:37:43;;;;;;;;;;;28.50;99.90;;;;;;5032203;28;19929;-82
2022/06/20 09:40:16;;;;;;;;;;;28.80;99.90;;;;;;5024483;28;19932;-82
2022/06/20 09:42:48;;;;;;;;;;;28.50;99.90;;;;;;5009810;28;19944;-82
2022/06/20 09:45:22;;;;;;;;;;;27.90;98.60;;;;;;5017326;28;19940;-84
2022/06/20 09:47:55;;;;;;;;;;;27.40;99.70;;;;;;5019485;28;19925;-79
2022/06/20 09:50:30;;;;;;;;;;;27.40;99.90;;;;;;5013462;28;20350;-83
2022/06/20 09:53:12;;;;;;;;;;;28.40;99.90;;;;;;5032067;28;19925;-79
2022/06/20 09:56:23;;;;;;;;;;;28.50;99.90;;;;;;5031267;28;19933;-79
2022/06/20 09:59:02;;;;;;;;;;;28.80;99.90;;;;;;5026861;28;20070;-81
2022/06/20 10:01:33;;;;;;;;;;;28.70;97.00;;;;;;5015559;28;20337;-81
2022/06/20 10:04:05;;;;;;;;;;;28.50;96.20;;;;;;5016358;28;20021;-80
2022/06/20 10:06:37;;;;;;;;;;;28.30;95.90;;;;;;5005758;28;19929;-81
2022/06/20 10:09:09;;;;;;;;;;;28.20;98.30;;;;;;5019404;28;19929;-82
2022/06/20 10:11:39;;;;;;;;;;;28.10;95.10;;;;;;5025137;28;19925;-82
2022/06/20 10:14:10;;;;;;;;;;;27.80;93.30;;;;;;5015932;28;19932;-82
2022/06/20 10:16:43;;;;;;;;;;;27.10;94.60;;;;;;5015417;28;19929;-82
2022/06/20 10:19:14;;;;;;;;;;;26.80;95.60;;;;;;5013568;28;19932;-81
2022/06/20 10:21:44;;;;;;;;;;;26.70;94.10;;;;;;5031026;28;20067;-82
2022/06/20 10:24:27;;;;;;;;;;;26.40;94.60;;;;;;5013625;28;19929;-82
2022/06/20 10:27:09;;;;;;;;;;;26.40;93.70;;;;;;5038508;28;20035;-82
2022/06/20 10:29:39;;;;;;;;;;;26.30;93.50;;;;;;5006841;28;20032;-82
2022/06/20 10:32:16;;;;;;;;;;;26.40;93.10;;;;;;5009236;28;20282;-79
2022/06/20 10:34:45;;;;;;;;;;;26.40;93.00;;;;;;5037237;28;19931;-78
2022/06/20 10:37:27;;;;;;;;;;;26.20;92.80;;;;;;5020447;28;19929;-79
2022/06/20 10:39:56;;;;;;;;;;;25.80;93.60;;;;;;5018923;28;20451;-79
2022/06/20 10:42:30;;;;;;;;;;;25.60;92.90;;;;;;5012546;28;19925;-79
2022/06/20 10:45:07;;;;;;;;;;;25.20;93.40;;;;;;5014617;28;20414;-80
2022/06/20 10:47:43;;;;;;;;;;;24.90;94.10;;;;;;5019038;28;20289;-77
2022/06/20 10:50:16;;;;;;;;;;;24.90;94.10;;;;;;5017603;28;19929;-78
2022/06/20 10:52:52;;;;;;;;;;;24.80;93.60;;;;;;5035947;28;20293;-78
2022/06/20 10:55:29;;;;;;;;;;;24.90;94.30;;;;;;5018093;28;19925;-77
2022/06/20 10:57:59;;;;;;;;;;;25.10;92.80;;;;;;5000587;28;19941;-77
2022/06/20 11:00:28;;;;;;;;;;;25.40;93.60;;;;;;5005325;28;19930;-76
2022/06/20 11:03:14;;;;;;;;;;;25.60;92.70;;;;;;5004389;28;19934;-77
2022/06/20 11:05:45;;;;;;;;;;;25.80;93.20;;;;;;5034459;28;20400;-77
2022/06/20 11:08:23;;;;;;;;;;;26.10;91.90;;;;;;5019916;28;19933;-77
2022/06/20 11:11:00;;;;;;;;;;;26.10;92.00;;;;;;5003876;28;19931;-77
2022/06/20 11:13:29;;;;;;;;;;;26.40;92.50;;;;;;5002920;28;19933;-77
2022/06/20 11:16:07;;;;;;;;;;;26.40;93.10;;;;;;5008019;28;19983;-77
2022/06/20 11:18:40;;;;;;;;;;;26.90;93.80;;;;;;5011554;28;19925;-77
2022/06/20 11:21:14;;;;;;;;;;;27.00;91.80;;;;;;5012311;28;19929;-77
2022/06/20 11:23:48;;;;;;;;;;;27.10;91.60;;;;;;4996059;28;19929;-77
2022/06/20 11:26:21;;;;;;;;;;;27.10;91.80;;;;;;4996213;28;19929;-77
2022/06/20 11:28:53;;;;;;;;;;;27.30;92.70;;;;;;5010556;28;19952;-77
2022/06/20 11:31:26;;;;;;;;;;;27.30;91.30;;;;;;5015037;28;19925;-77
2022/06/20 11:34:09;;;;;;;;;;;27.20;90.20;;;;;;5018723;28;19929;-76
2022/06/20 11:36:51;;;;;;;;;;;26.90;88.50;;;;;;5026388;28;19977;-76
2022/06/20 11:39:28;;;;;;;;;;;26.60;87.30;;;;;;5014390;28;19968;-77
2022/06/20 11:41:56;;;;;;;;;;;26.10;87.80;;;;;;5015906;28;19933;-76
2022/06/20 11:44:35;;;;;;;;;;;26.00;89.40;;;;;;5012819;28;19936;-77
2022/06/20 11:47:19;;;;;;;;;;;25.90;89.80;;;;;;5011142;28;19925;-77
2022/06/20 11:49:55;;;;;;;;;;;25.60;89.90;;;;;;5028196;28;19973;-76
2022/06/20 11:52:24;;;;;;;;;;;25.40;90.50;;;;;;5030304;28;19951;-77
2022/06/20 11:54:57;;;;;;;;;;;25.40;90.60;;;;;;5006952;28;19930;-77
2022/06/20 11:57:29;;;;;;;;;;;25.40;90.60;;;;;;5018322;28;19983;-77
2022/06/20 12:00:00;;;;;;;;;;;25.50;91.00;;;;;;5021948;28;19930;-77
2022/06/20 12:02:41;;;;;;;;;;;25.50;90.80;;;;;;5023033;28;20277;-76
2022/06/20 12:05:26;;;;;;;;;;;25.70;91.10;;;;;;5009246;28;20317;-77
2022/06/20 12:07:57;;;;;;;;;;;25.80;91.30;;;;;;5008058;28;20012;-77
2022/06/20 12:10:28;;;;;;;;;;;26.10;90.80;;;;;;5012250;28;19930;-77
2022/06/20 12:13:01;;;;;;;;;;;26.20;90.00;;;;;;5007033;28;20321;-76
2022/06/20 12:15:36;;;;;;;;;;;26.30;90.30;;;;;;5027394;28;20408;-75
2022/06/20 12:18:09;;;;;;;;;;;26.20;90.20;;;;;;5026651;28;19936;-76
2022/06/20 12:23:27;;;;;;;;;;;26.20;88.90;;;;;;5014242;28;20409;-76
2022/06/20 12:25:57;;;;;;;;;;;26.10;88.30;;;;;;5019527;28;19937;-76
2022/06/20 12:28:25;;;;;;;;;;;26.00;89.20;;;;;;5010013;28;19929;-77
2022/06/20 12:30:54;;;;;;;;;;;26.00;88.40;;;;;;5007408;28;19952;-77
2022/06/20 12:33:22;;;;;;;;;;;26.10;87.70;;;;;;4995695;28;19933;-77
2022/06/20 12:35:50;;;;;;;;;;;25.80;87.40;;;;;;4995147;28;19925;-77
2022/06/20 12:38:19;;;;;;;;;;;25.40;88.20;;;;;;5012787;28;19948;-77
2022/06/20 12:40:49;;;;;;;;;;;25.40;88.10;;;;;;5012614;28;20019;-78
2022/06/20 12:43:17;;;;;;;;;;;25.20;87.80;;;;;;5010819;28;20384;-77
2022/06/20 12:45:57;;;;;;;;;;;25.20;88.60;;;;;;5010645;28;20069;-77
2022/06/20 12:48:28;;;;;;;;;;;25.60;87.50;;;;;;5012277;28;19929;-77
2022/06/20 12:51:02;;;;;;;;;;;25.70;86.80;;;;;;5005911;28;20012;-77
2022/06/20 12:53:42;;;;;;;;;;;25.40;84.70;;;;;;5028934;28;20012;-77
2022/06/20 12:56:16;;;;;;;;;;;25.40;85.20;;;;;;5031569;28;19979;-77
2022/06/20 12:58:55;;;;;;;;;;;25.10;86.80;;;;;;5011363;28;20632;-77
2022/06/20 13:01:25;;;;;;;;;;;25.10;85.90;;;;;;5014339;28;19929;-77
2022/06/20 13:04:03;;;;;;;;;;;25.10;85.60;;;;;;5014213;28;19947;-77
2022/06/20 13:07:03;;;;;;;;;;;25.20;86.80;;;;;;5014756;28;19992;-76
2022/06/20 13:09:37;;;;;;;;;;;25.40;87.90;;;;;;4934633;29;19986;-77
2022/06/20 13:12:11;;;;;;;;;;;25.50;86.30;;;;;;4946007;29;20010;-77
2022/06/20 13:14:59;;;;;;;;;;;25.50;86.70;;;;;;4983823;28;19984;-77
2022/06/20 13:17:31;;;;;;;;;;;25.50;86.20;;;;;;4979494;28;19948;-77
2022/06/20 13:20:07;;;;;;;;;;;25.50;83.90;;;;;;5012754;28;19925;-77
2022/06/20 13:22:37;;;;;;;;;;;25.30;84.30;;;;;;5010214;28;19925;-76
2022/06/20 13:25:13;;;;;;;;;;;25.20;85.70;;;;;;5009501;28;19925;-77
2022/06/20 13:27:45;;;;;;;;;;;25.10;86.30;;;;;;5019720;28;20665;-77
2022/06/20 13:30:18;;;;;;;;;;;24.90;86.20;;;;;;4985302;28;22332;-77
2022/06/20 13:32:48;;;;;;;;;;;25.10;87.20;;;;;;5001226;28;19925;-76
2022/06/20 13:35:18;;;;;;;;;;;25.20;86.80;;;;;;5010579;28;19932;-77
2022/06/20 13:37:47;;;;;;;;;;;25.20;84.20;;;;;;5018530;28;19929;-77
2022/06/20 13:40:26;;;;;;;;;;;25.00;83.10;;;;;;5012607;28;19929;-77
2022/06/20 13:43:04;;;;;;;;;;;24.90;84.20;;;;;;5012466;28;20488;-77
2022/06/20 13:45:34;;;;;;;;;;;24.70;85.20;;;;;;5013644;28;19983;-77
2022/06/20 13:48:08;;;;;;;;;;;24.70;84.50;;;;;;5030404;28;19929;-77
2022/06/20 13:50:40;;;;;;;;;;;24.70;85.40;;;;;;5004910;28;19936;-76
2022/06/20 13:53:12;;;;;;;;;;;24.80;85.60;;;;;;5010512;28;20140;-76
2022/06/20 13:55:44;;;;;;;;;;;24.80;84.60;;;;;;5013225;28;19932;-76
2022/06/20 13:58:15;;;;;;;;;;;24.60;83.70;;;;;;5009851;28;19925;-81
2022/06/20 14:00:43;;;;;;;;;;;24.60;83.50;;;;;;5034302;28;19925;-80
2022/06/20 14:03:12;;;;;;;;;;;24.40;85.00;;;;;;5017994;28;19929;-80
2022/06/20 14:05:40;;;;;;;;;;;24.20;84.90;;;;;;5017420;28;19925;-81
2022/06/20 14:08:09;;;;;;;;;;;24.00;84.90;;;;;;5017101;28;19987;-81
2022/06/20 14:10:43;;;;;;;;;;;24.10;85.00;;;;;;5017604;28;20356;-80
2022/06/20 14:13:18;;;;;;;;;;;24.70;86.20;;;;;;5016494;28;19933;-80
2022/06/20 14:15:45;;;;;;;;;;;24.70;85.90;;;;;;5015306;28;19929;-81
2022/06/20 14:18:17;;;;;;;;;;;25.20;84.10;;;;;;5017358;28;19929;-80
2022/06/20 14:20:50;;;;;;;;;;;25.50;84.80;;;;;;5015508;28;20037;-81
2022/06/20 14:23:18;;;;;;;;;;;26.00;82.60;;;;;;5015631;28;20308;-81
2022/06/20 14:25:48;;;;;;;;;;;26.00;81.20;;;;;;5014059;28;19949;-81
2022/06/20 14:28:19;;;;;;;;;;;25.60;79.40;;;;;;5015856;28;19936;-81
2022/06/20 14:30:48;;;;;;;;;;;25.50;80.10;;;;;;5015184;28;19933;-81
2022/06/20 14:33:16;;;;;;;;;;;24.50;80.10;;;;;;5014771;28;20027;-81
2022/06/20 14:35:50;;;;;;;;;;;25.00;81.90;;;;;;5016105;28;20003;-81
2022/06/20 14:38:19;;;;;;;;;;;25.00;83.40;;;;;;5019234;28;20308;-81
2022/06/20 14:40:49;;;;;;;;;;;25.00;83.70;;;;;;5027704;28;19951;-81
2022/06/20 14:43:18;;;;;;;;;;;25.30;83.30;;;;;;5018440;28;19929;-77
2022/06/20 14:45:54;;;;;;;;;;;25.60;83.30;;;;;;4998064;28;19979;-79